Time;durP1;ratioP1;P1;durP2;ratioP2;P2;SDS_P1;SDS_P2;PMS_P1;PMS_P2;Temp;Humidity;BMP_temperature;BMP_pressure;BME280_temperature;BME280_humidity;BME280_pressure;Samples;Min_cycle;Max_cycle;Signal;HPM_P1;HPM_P2
2022/09/06 00:02:04;;;;;;;1.45;0.60;;;21.70;85.30;;;;;;6134623;23;20010;-82
2022/09/06 00:04:30;;;;;;;2.80;0.65;;;21.70;85.40;;;;;;6108179;23;20365;-83
2022/09/06 00:06:59;;;;;;;2.03;0.60;;;21.60;85.50;;;;;;6132277;23;20008;-84
2022/09/06 00:09:26;;;;;;;1.10;0.60;;;21.70;85.90;;;;;;6133779;23;20342;-82
2022/09/06 00:11:52;;;;;;;2.75;0.98;;;21.60;86.00;;;;;;6136224;23;20025;-80
2022/09/06 00:14:18;;;;;;;1.73;0.75;;;21.60;86.30;;;;;;6157502;23;20013;-82
2022/09/06 00:16:44;;;;;;;3.72;0.70;;;21.60;86.40;;;;;;6133730;23;19998;-82
2022/09/06 00:19:10;;;;;;;2.03;0.93;;;21.60;86.70;;;;;;6132529;23;20290;-82
2022/09/06 00:21:37;;;;;;;2.10;0.70;;;21.60;86.70;;;;;;6130435;23;20436;-82
2022/09/06 00:24:03;;;;;;;1.20;0.60;;;21.60;86.70;;;;;;6154984;23;20005;-82
2022/09/06 00:26:30;;;;;;;2.10;0.60;;;21.60;86.60;;;;;;6128258;23;20346;-83
2022/09/06 00:28:57;;;;;;;1.73;0.70;;;21.60;86.70;;;;;;6128242;23;20009;-82
2022/09/06 00:31:25;;;;;;;3.75;0.90;;;21.60;86.70;;;;;;6129374;23;20041;-82
2022/09/06 00:33:56;;;;;;;4.50;0.70;;;21.60;86.90;;;;;;6137150;23;19998;-83
2022/09/06 00:36:23;;;;;;;1.65;0.77;;;21.50;86.90;;;;;;6126211;23;20009;-83
2022/09/06 00:38:49;;;;;;;2.15;0.90;;;21.60;87.10;;;;;;6128253;23;20010;-84
2022/09/06 00:41:16;;;;;;;2.17;0.60;;;21.60;87.20;;;;;;6102353;23;20006;-83
2022/09/06 00:43:43;;;;;;;1.55;0.80;;;21.60;87.20;;;;;;6127141;23;20018;-83
2022/09/06 00:46:17;;;;;;;2.00;0.68;;;21.50;87.40;;;;;;6103385;23;20014;-83
2022/09/06 00:48:47;;;;;;;3.55;0.90;;;21.50;87.90;;;;;;6159190;23;20013;-82
2022/09/06 00:51:15;;;;;;;1.23;0.60;;;21.50;88.20;;;;;;6128844;23;20323;-81
2022/09/06 00:53:42;;;;;;;1.73;0.63;;;21.40;88.30;;;;;;6129526;23;20020;-82
2022/09/06 00:56:08;;;;;;;2.55;0.65;;;21.40;88.30;;;;;;6130595;23;20013;-82
2022/09/06 00:58:35;;;;;;;1.60;0.70;;;21.40;88.30;;;;;;6153651;23;20024;-82
2022/09/06 01:01:02;;;;;;;2.30;0.60;;;21.40;88.50;;;;;;6128570;23;20020;-83
2022/09/06 01:03:28;;;;;;;2.70;0.55;;;21.40;89.00;;;;;;6104395;23;20332;-82
2022/09/06 01:06:23;;;;;;;1.55;0.70;;;21.30;89.50;;;;;;6126995;23;20009;-83
2022/09/06 01:09:13;;;;;;;1.13;0.50;;;21.20;90.10;;;;;;6135394;23;20032;-82
2022/09/06 01:11:52;;;;;;;2.75;0.60;;;21.10;90.40;;;;;;6103864;23;20018;-83
2022/09/06 01:14:43;;;;;;;2.90;0.80;;;20.90;90.70;;;;;;6138426;23;19998;-83
2022/09/06 01:17:26;;;;;;;1.30;0.60;;;20.80;91.30;;;;;;6107726;23;20010;-83
2022/09/06 01:20:28;;;;;;;1.85;0.95;;;20.70;91.70;;;;;;6133124;23;20013;-83
2022/09/06 01:23:13;;;;;;;2.17;0.70;;;20.50;92.30;;;;;;6102329;23;20020;-83
2022/09/06 01:26:15;;;;;;;1.63;0.77;;;20.30;92.50;;;;;;6125836;23;20006;-83
2022/09/06 01:28:44;;;;;;;1.67;0.63;;;20.10;93.60;;;;;;6101777;23;20014;-83
2022/09/06 01:31:34;;;;;;;1.10;0.70;;;19.90;94.00;;;;;;6126120;23;20010;-83
2022/09/06 01:34:07;;;;;;;1.13;0.50;;;19.80;95.00;;;;;;6139419;23;20009;-83
2022/09/06 01:36:48;;;;;;;2.17;0.90;;;19.70;95.80;;;;;;6103524;23;20026;-81
2022/09/06 01:39:29;;;;;;;5.55;0.95;;;19.60;96.60;;;;;;6102909;23;20453;-83
2022/09/06 01:41:58;;;;;;;1.70;0.60;;;19.40;97.40;;;;;;6138384;23;20010;-83
2022/09/06 01:44:27;;;;;;;1.20;0.60;;;19.40;98.10;;;;;;6126348;23;20009;-83
2022/09/06 01:47:05;;;;;;;1.73;0.77;;;19.30;98.90;;;;;;6149907;23;20016;-82
2022/09/06 01:49:50;;;;;;;1.20;0.60;;;19.20;99.90;;;;;;6129587;23;20013;-83
2022/09/06 01:52:33;;;;;;;1.35;0.50;;;19.10;99.90;;;;;;6127816;23;20382;-81
2022/09/06 01:55:07;;;;;;;1.80;0.75;;;19.10;99.90;;;;;;6138765;23;20339;-83
2022/09/06 01:58:04;;;;;;;2.22;0.70;;;19.00;99.90;;;;;;6103820;23;20025;-83
2022/09/06 02:00:34;;;;;;;1.55;0.80;;;19.00;99.90;;;;;;6138601;23;20006;-83
2022/09/06 02:03:31;;;;;;;2.53;0.80;;;19.00;99.90;;;;;;6131563;23;20002;-83
2022/09/06 02:06:09;;;;;;;1.67;0.75;;;19.00;99.90;;;;;;6103977;23;20006;-83
2022/09/06 02:08:45;;;;;;;1.90;0.60;;;19.00;99.90;;;;;;6102770;23;20006;-83
2022/09/06 02:11:13;;;;;;;1.90;0.70;;;18.90;99.90;;;;;;6128971;23;20014;-83
2022/09/06 02:13:55;;;;;;;1.88;0.77;;;18.90;99.90;;;;;;6141104;23;20008;-83
2022/09/06 02:16:26;;;;;;;1.88;0.70;;;18.90;99.90;;;;;;6137854;23;20291;-83
2022/09/06 02:18:59;;;;;;;1.40;0.60;;;18.90;99.90;;;;;;6132490;23;20002;-83
2022/09/06 02:21:30;;;;;;;2.08;0.60;;;18.90;99.90;;;;;;6137818;23;20010;-82
2022/09/06 02:24:00;;;;;;;2.40;0.80;;;18.90;99.90;;;;;;6127080;23;20005;-82
2022/09/06 02:26:31;;;;;;;2.75;1.20;;;18.90;99.90;;;;;;6126624;23;20014;-81
2022/09/06 02:28:57;;;;;;;2.53;1.00;;;18.90;99.90;;;;;;6129315;23;20002;-81
2022/09/06 02:31:40;;;;;;;3.08;1.58;;;18.90;99.90;;;;;;6127278;23;20010;-81
2022/09/06 02:34:07;;;;;;;3.05;0.82;;;18.90;99.90;;;;;;6141141;23;19998;-81
2022/09/06 02:36:36;;;;;;;3.55;0.85;;;18.90;99.90;;;;;;6153896;23;20025;-82
2022/09/06 02:39:03;;;;;;;2.40;0.90;;;18.90;99.90;;;;;;6127489;23;20006;-83
2022/09/06 02:41:30;;;;;;;1.63;0.90;;;18.90;99.90;;;;;;6130085;23;20006;-82
2022/09/06 02:43:56;;;;;;;2.60;1.55;;;18.90;99.90;;;;;;6102310;23;20014;-82
2022/09/06 02:46:23;;;;;;;2.72;1.80;;;18.90;99.90;;;;;;6127431;23;20010;-83
2022/09/06 02:48:50;;;;;;;2.92;1.35;;;18.90;99.90;;;;;;6150962;23;20012;-82
2022/09/06 02:51:17;;;;;;;5.40;2.28;;;18.90;99.90;;;;;;6131425;23;20006;-80
2022/09/06 02:53:43;;;;;;;2.85;2.08;;;18.90;99.90;;;;;;6157860;23;20020;-81
2022/09/06 02:56:09;;;;;;;3.72;2.05;;;18.90;99.90;;;;;;6131053;23;20012;-82
2022/09/06 02:58:35;;;;;;;4.50;2.15;;;18.90;99.90;;;;;;6131161;23;20446;-82
2022/09/06 03:01:02;;;;;;;4.00;3.08;;;18.90;99.90;;;;;;6133122;23;20211;-81
2022/09/06 03:03:29;;;;;;;5.15;3.30;;;18.80;99.90;;;;;;6135125;23;19998;-81
2022/09/06 03:05:55;;;;;;;4.53;3.17;;;18.80;99.90;;;;;;6142426;23;20016;-80
2022/09/06 03:08:24;;;;;;;7.45;3.33;;;18.80;99.90;;;;;;6137121;23;20012;-82
2022/09/06 03:10:55;;;;;;;4.30;3.30;;;18.80;99.90;;;;;;6135270;23;20008;-82
2022/09/06 03:13:23;;;;;;;6.20;3.60;;;18.80;99.90;;;;;;6142067;23;20016;-82
2022/09/06 03:15:55;;;;;;;3.22;2.60;;;18.70;99.90;;;;;;6108717;23;20008;-82
2022/09/06 03:18:23;;;;;;;2.10;1.45;;;18.70;99.90;;;;;;6108378;23;20002;-82
2022/09/06 03:20:50;;;;;;;2.42;1.65;;;18.70;99.90;;;;;;6134247;23;20334;-82
2022/09/06 03:23:18;;;;;;;2.55;1.58;;;18.70;99.90;;;;;;6135215;23;20440;-82
2022/09/06 03:25:44;;;;;;;4.63;1.75;;;18.70;99.90;;;;;;6156566;23;20017;-82
2022/09/06 03:28:11;;;;;;;2.50;1.48;;;18.70;99.90;;;;;;6109388;23;20018;-82
2022/09/06 03:30:38;;;;;;;5.68;1.50;;;18.70;99.90;;;;;;6109332;23;20021;-82
2022/09/06 03:33:05;;;;;;;2.80;1.40;;;18.70;99.90;;;;;;6142987;23;20020;-82
2022/09/06 03:35:31;;;;;;;2.67;1.35;;;18.80;99.90;;;;;;6144439;23;20111;-80
2022/09/06 03:37:57;;;;;;;3.38;1.33;;;18.80;99.90;;;;;;6144611;23;20405;-83
2022/09/06 03:40:24;;;;;;;3.00;1.52;;;18.80;99.90;;;;;;6144911;23;20009;-82
2022/09/06 03:42:50;;;;;;;2.13;1.63;;;18.80;99.90;;;;;;6141345;23;20193;-81
2022/09/06 03:45:16;;;;;;;3.28;1.83;;;18.90;99.90;;;;;;6106604;23;20078;-81
2022/09/06 03:47:43;;;;;;;1.92;1.45;;;18.90;99.90;;;;;;6082041;23;20013;-83
2022/09/06 03:50:09;;;;;;;2.38;1.02;;;18.90;99.90;;;;;;6106062;23;20024;-81
2022/09/06 03:52:36;;;;;;;2.42;1.33;;;18.90;99.90;;;;;;6056725;23;20010;-82
2022/09/06 03:55:03;;;;;;;1.90;1.27;;;18.90;99.90;;;;;;6131552;23;20005;-81
2022/09/06 03:57:29;;;;;;;3.55;1.33;;;18.90;99.90;;;;;;6130122;23;20002;-82
2022/09/06 03:59:56;;;;;;;2.28;1.80;;;19.00;99.90;;;;;;6080411;23;20497;-81
2022/09/06 04:02:22;;;;;;;3.45;1.33;;;19.00;99.90;;;;;;6128228;23;20018;-82
2022/09/06 04:04:48;;;;;;;2.80;1.45;;;19.00;99.90;;;;;;6079287;23;20017;-81
2022/09/06 04:07:14;;;;;;;2.15;1.67;;;19.00;99.90;;;;;;6080318;23;20448;-82
2022/09/06 04:09:40;;;;;;;2.83;1.92;;;19.10;99.90;;;;;;6127805;23;20061;-82
2022/09/06 04:12:07;;;;;;;2.33;1.50;;;19.00;99.90;;;;;;6080545;23;20466;-82
2022/09/06 04:14:33;;;;;;;2.15;1.60;;;19.00;99.90;;;;;;6080636;23;20013;-81
2022/09/06 04:16:59;;;;;;;2.08;1.50;;;19.00;99.90;;;;;;6128412;23;19999;-82
2022/09/06 04:19:25;;;;;;;2.50;1.85;;;19.00;99.90;;;;;;6103192;23;20013;-81
2022/09/06 04:21:51;;;;;;;2.65;1.80;;;19.00;99.90;;;;;;6103366;23;20020;-81
2022/09/06 04:24:18;;;;;;;2.08;1.67;;;19.00;99.90;;;;;;6101970;23;20454;-81
2022/09/06 04:26:44;;;;;;;4.07;1.73;;;19.10;99.90;;;;;;6101808;23;20006;-81
2022/09/06 04:29:10;;;;;;;2.65;1.45;;;19.00;99.90;;;;;;6128987;23;20008;-84
2022/09/06 04:31:36;;;;;;;2.53;1.73;;;19.10;99.90;;;;;;6077903;23;20070;-83
2022/09/06 04:34:03;;;;;;;3.65;2.08;;;19.00;99.90;;;;;;6078476;23;20014;-81
2022/09/06 04:36:29;;;;;;;2.95;1.98;;;19.00;99.90;;;;;;6130679;23;20016;-81
2022/09/06 04:38:55;;;;;;;4.00;2.10;;;19.00;99.90;;;;;;6109749;23;20016;-84
2022/09/06 04:41:22;;;;;;;3.78;2.33;;;19.00;99.90;;;;;;6089141;23;20325;-87
2022/09/06 04:43:48;;;;;;;3.42;2.65;;;19.00;99.90;;;;;;6138282;23;20074;-84
2022/09/06 04:46:22;;;;;;;4.22;2.83;;;19.00;99.90;;;;;;6111241;23;20016;-86
2022/09/06 04:48:49;;;;;;;2.70;2.45;;;19.10;99.90;;;;;;6062660;23;20020;-86
2022/09/06 04:51:16;;;;;;;2.53;2.17;;;19.00;99.90;;;;;;6111254;23;20020;-85
2022/09/06 04:53:43;;;;;;;2.65;2.40;;;19.10;99.90;;;;;;6110814;23;20006;-86
2022/09/06 04:56:15;;;;;;;3.20;2.83;;;19.10;99.90;;;;;;6110738;23;20010;-85
2022/09/06 04:58:43;;;;;;;2.72;2.38;;;19.10;99.90;;;;;;6086127;23;20002;-84
2022/09/06 05:01:09;;;;;;;3.67;2.63;;;19.20;99.90;;;;;;6135073;23;20020;-85
2022/09/06 05:03:35;;;;;;;2.70;2.25;;;19.20;99.90;;;;;;6137636;23;20020;-85
2022/09/06 05:06:22;;;;;;;2.63;2.13;;;19.20;99.90;;;;;;6087699;23;20010;-87
2022/09/06 05:08:49;;;;;;;2.95;1.88;;;19.20;99.90;;;;;;6119700;23;20066;-85
2022/09/06 05:11:16;;;;;;;3.42;2.33;;;19.20;99.90;;;;;;6138827;23;20014;-84
2022/09/06 05:13:43;;;;;;;4.60;3.50;;;19.20;99.90;;;;;;6111691;23;20021;-86
2022/09/06 05:16:10;;;;;;;7.53;6.10;;;19.20;99.90;;;;;;6104076;23;20009;-83
2022/09/06 05:18:37;;;;;;;5.75;4.38;;;19.10;99.90;;;;;;6130193;23;20006;-85
2022/09/06 05:21:03;;;;;;;3.80;3.28;;;19.10;99.90;;;;;;6059827;23;20405;-86
2022/09/06 05:23:30;;;;;;;3.13;2.83;;;19.10;99.90;;;;;;6106471;23;20012;-86
2022/09/06 05:25:56;;;;;;;3.30;2.55;;;19.10;99.90;;;;;;6080958;23;20010;-87
2022/09/06 05:28:22;;;;;;;3.20;2.38;;;19.10;99.90;;;;;;6131707;23;20006;-87
2022/09/06 05:30:49;;;;;;;4.13;2.72;;;19.00;99.90;;;;;;6108990;23;20006;-85
2022/09/06 05:33:21;;;;;;;3.35;1.98;;;19.00;99.90;;;;;;6111507;23;20016;-84
2022/09/06 05:35:47;;;;;;;3.35;2.70;;;19.00;99.90;;;;;;6133990;23;20021;-85
2022/09/06 05:38:14;;;;;;;3.45;3.15;;;19.00;99.90;;;;;;6109798;23;20310;-87
2022/09/06 05:40:40;;;;;;;2.75;1.98;;;19.00;99.90;;;;;;6083280;23;20022;-86
2022/09/06 05:43:06;;;;;;;3.08;2.65;;;19.00;99.90;;;;;;6083331;23;20029;-87
2022/09/06 05:45:32;;;;;;;2.58;2.38;;;19.00;99.90;;;;;;6082556;23;20466;-86
2022/09/06 05:47:58;;;;;;;2.75;2.45;;;19.00;99.90;;;;;;6081364;23;20024;-86
2022/09/06 05:50:25;;;;;;;2.92;2.65;;;19.00;99.90;;;;;;6106517;23;20350;-85
2022/09/06 05:52:53;;;;;;;4.70;2.85;;;19.10;99.90;;;;;;6084130;23;20011;-86
2022/09/06 05:55:19;;;;;;;5.43;2.90;;;19.10;99.90;;;;;;6056432;23;20010;-86
2022/09/06 05:57:45;;;;;;;3.22;2.35;;;19.20;99.90;;;;;;6055676;23;20013;-86
2022/09/06 06:00:12;;;;;;;5.72;3.25;;;19.30;99.90;;;;;;6073718;23;20010;-85
2022/09/06 06:02:39;;;;;;;3.78;3.38;;;19.30;99.90;;;;;;6100387;23;20021;-84
2022/09/06 06:05:06;;;;;;;3.55;2.83;;;19.40;99.90;;;;;;6100737;23;20443;-84
2022/09/06 06:07:32;;;;;;;4.43;3.67;;;19.30;99.90;;;;;;6074770;23;20013;-84
2022/09/06 06:09:58;;;;;;;3.28;2.65;;;19.40;99.90;;;;;;6099124;23;20010;-85
2022/09/06 06:12:24;;;;;;;6.85;3.33;;;19.30;99.90;;;;;;6076463;23;20021;-85
2022/09/06 06:14:51;;;;;;;3.95;3.63;;;19.30;99.90;;;;;;6074696;23;20002;-83
2022/09/06 06:17:17;;;;;;;4.38;3.97;;;19.40;99.90;;;;;;6099165;23;20114;-84
2022/09/06 06:19:43;;;;;;;4.97;3.92;;;19.50;99.90;;;;;;6075085;23;20017;-84
2022/09/06 06:22:09;;;;;;;5.60;3.95;;;19.70;99.90;;;;;;6075880;23;20544;-83
2022/09/06 06:24:36;;;;;;;4.10;3.70;;;19.80;99.90;;;;;;6097816;23;20014;-82
2022/09/06 06:27:02;;;;;;;6.20;4.25;;;19.90;99.90;;;;;;6101707;23;20010;-84
2022/09/06 06:29:28;;;;;;;4.82;4.30;;;20.10;99.90;;;;;;6104060;23;20017;-85
2022/09/06 06:31:54;;;;;;;5.90;4.10;;;20.20;99.90;;;;;;6054937;23;20014;-84
2022/09/06 06:34:21;;;;;;;5.03;3.63;;;20.30;99.90;;;;;;6085861;23;20003;-83
2022/09/06 06:36:47;;;;;;;6.80;6.10;;;20.40;99.90;;;;;;6090292;23;20017;-84
2022/09/06 06:39:14;;;;;;;5.53;4.15;;;20.50;99.90;;;;;;6116904;23;20006;-85
2022/09/06 06:41:40;;;;;;;4.03;3.50;;;20.50;99.90;;;;;;6146231;23;20006;-84
2022/09/06 06:44:27;;;;;;;3.88;3.40;;;20.60;99.90;;;;;;6126629;23;20028;-85
2022/09/06 06:46:53;;;;;;;3.72;3.13;;;20.70;99.90;;;;;;6110202;23;20006;-84
2022/09/06 06:49:19;;;;;;;3.38;3.08;;;20.80;99.90;;;;;;6111548;23;20016;-84
2022/09/06 06:51:46;;;;;;;2.95;2.53;;;20.90;99.90;;;;;;6134930;23;20005;-85
2022/09/06 06:54:12;;;;;;;5.20;3.28;;;21.00;99.90;;;;;;6086308;23;20010;-85
2022/09/06 06:57:15;;;;;;;3.08;2.47;;;21.10;99.90;;;;;;6081615;23;20017;-84
2022/09/06 06:59:46;;;;;;;3.70;3.33;;;21.20;99.90;;;;;;6085018;23;20016;-84
2022/09/06 07:02:19;;;;;;;4.78;3.28;;;21.30;99.90;;;;;;6107938;23;20021;-84
2022/09/06 07:04:46;;;;;;;4.72;4.20;;;21.40;99.90;;;;;;6106649;23;20005;-84
2022/09/06 07:07:12;;;;;;;4.65;3.47;;;21.40;99.90;;;;;;6108140;23;20017;-84
2022/09/06 07:09:41;;;;;;;3.88;3.55;;;21.50;99.90;;;;;;6088132;23;20016;-84
2022/09/06 07:12:11;;;;;;;3.83;2.78;;;21.60;99.90;;;;;;6130951;23;20005;-83
2022/09/06 07:14:47;;;;;;;3.97;3.50;;;21.60;99.90;;;;;;6059086;23;20012;-84
2022/09/06 07:17:13;;;;;;;3.28;2.97;;;21.80;99.90;;;;;;6077531;23;20013;-84
2022/09/06 07:19:39;;;;;;;3.65;3.28;;;21.90;99.90;;;;;;6125532;23;20006;-83
2022/09/06 07:22:07;;;;;;;3.38;3.08;;;22.00;99.90;;;;;;6102734;23;20006;-84
2022/09/06 07:24:33;;;;;;;4.07;2.75;;;22.00;99.90;;;;;;6126545;23;20025;-84
2022/09/06 07:26:59;;;;;;;2.33;1.98;;;22.00;99.90;;;;;;6125138;23;20013;-84
2022/09/06 07:29:25;;;;;;;3.75;3.00;;;22.10;99.90;;;;;;6099860;23;20339;-84
2022/09/06 07:31:56;;;;;;;3.60;3.10;;;22.10;99.90;;;;;;6075414;23;20413;-84
2022/09/06 07:34:28;;;;;;;3.53;2.70;;;22.10;99.90;;;;;;6100530;23;20006;-84
2022/09/06 07:36:55;;;;;;;2.78;2.05;;;22.20;99.90;;;;;;6110032;23;20006;-84
2022/09/06 07:39:21;;;;;;;2.35;2.00;;;22.30;99.90;;;;;;6089952;23;20010;-85
2022/09/06 07:41:47;;;;;;;2.05;1.77;;;22.40;99.90;;;;;;6097137;23;20011;-84
2022/09/06 07:44:14;;;;;;;3.63;2.65;;;22.50;99.90;;;;;;6102483;23;20411;-85
2022/09/06 07:46:40;;;;;;;3.25;2.30;;;22.60;99.90;;;;;;6076792;23;20002;-84
2022/09/06 07:49:07;;;;;;;1.80;1.60;;;22.70;99.90;;;;;;6099831;23;20331;-84
2022/09/06 07:51:33;;;;;;;5.13;2.92;;;22.80;99.90;;;;;;6057402;23;20016;-84
2022/09/06 07:53:59;;;;;;;2.95;2.65;;;22.90;99.90;;;;;;6078655;23;20017;-85
2022/09/06 07:56:25;;;;;;;2.53;1.63;;;22.90;99.90;;;;;;6078832;23;20068;-84
2022/09/06 07:58:56;;;;;;;2.92;2.03;;;22.90;99.90;;;;;;6078260;23;20018;-83
2022/09/06 08:01:34;;;;;;;3.00;2.50;;;23.00;99.90;;;;;;6078915;23;20013;-86
2022/09/06 08:04:07;;;;;;;2.38;1.77;;;23.10;99.90;;;;;;6079194;23;20006;-87
2022/09/06 08:06:36;;;;;;;4.70;2.10;;;23.20;99.90;;;;;;6050871;23;20015;-84
2022/09/06 08:09:07;;;;;;;2.80;2.00;;;23.30;99.90;;;;;;6052299;23;20017;-86
2022/09/06 08:11:39;;;;;;;3.08;1.83;;;23.40;99.90;;;;;;6073505;23;20006;-86
2022/09/06 08:14:26;;;;;;;3.75;2.63;;;23.50;99.90;;;;;;6046371;23;20014;-85
2022/09/06 08:17:16;;;;;;;3.65;2.65;;;23.60;99.90;;;;;;6048066;23;19998;-85
2022/09/06 08:19:44;;;;;;;3.08;1.95;;;23.60;99.90;;;;;;6048371;23;20007;-86
2022/09/06 08:22:14;;;;;;;3.28;1.67;;;23.70;99.90;;;;;;6048468;23;20006;-86
2022/09/06 08:24:43;;;;;;;4.60;2.55;;;23.80;99.90;;;;;;6071260;23;20007;-85
2022/09/06 08:27:25;;;;;;;3.35;2.55;;;23.80;99.90;;;;;;6052255;23;20021;-85
2022/09/06 08:29:57;;;;;;;2.20;1.42;;;23.90;99.90;;;;;;6046520;23;20018;-84
2022/09/06 08:32:23;;;;;;;2.33;2.05;;;23.90;99.90;;;;;;6048658;23;20006;-82
2022/09/06 08:34:49;;;;;;;2.42;1.25;;;23.90;99.90;;;;;;6076302;23;19999;-79
2022/09/06 08:37:16;;;;;;;2.20;1.20;;;24.00;99.90;;;;;;6076000;23;20544;-80
2022/09/06 08:39:42;;;;;;;2.58;1.38;;;24.20;99.90;;;;;;6073689;23;20017;-79
2022/09/06 08:42:10;;;;;;;3.25;1.88;;;24.30;99.90;;;;;;6073646;23;20005;-79
2022/09/06 08:44:47;;;;;;;4.07;1.70;;;24.50;99.90;;;;;;6100295;23;20015;-79
2022/09/06 08:47:15;;;;;;;3.95;2.47;;;24.60;99.90;;;;;;6059947;23;20010;-79
2022/09/06 08:51:01;;;;;;;;;;;;;;;;;;;;;
2022/09/06 08:54:52;;;;;;;3.55;1.27;;;24.80;99.70;;;;;;6076839;23;20028;-78
2022/09/06 08:58:43;;;;;;;3.88;1.50;;;25.00;99.30;;;;;;6052234;23;20054;-78
2022/09/06 09:02:19;;;;;;;1.98;1.20;;;25.00;98.70;;;;;;6092769;23;20014;-78
2022/09/06 09:06:04;;;;;;;;;;;;;;;;;;;;;
2022/09/06 11:38:23;;;;;;;3.23;0.70;;;35.50;66.10;;;;;;6089481;23;20025;31
2022/09/06 11:41:00;;;;;;;1.73;0.52;;;35.90;64.40;;;;;;5989358;23;20017;-82
2022/09/06 11:43:50;;;;;;;1.70;0.60;;;36.10;63.70;;;;;;5985953;24;20018;-81
2022/09/06 11:46:32;;;;;;;8.18;1.83;;;36.30;61.30;;;;;;5968595;24;20004;-80
2022/09/06 11:49:04;;;;;;;1.65;0.68;;;36.40;61.80;;;;;;5960087;23;20346;-80
2022/09/06 11:51:36;;;;;;;1.02;0.60;;;36.60;61.00;;;;;;5983935;24;20023;-82
2022/09/06 11:54:34;;;;;;;1.17;0.40;;;36.80;60.10;;;;;;5984292;24;20020;-80
2022/09/06 11:57:16;;;;;;;1.17;0.50;;;37.10;59.60;;;;;;5984575;24;20361;-82
2022/09/06 11:59:52;;;;;;;1.48;0.50;;;37.50;59.10;;;;;;5993328;23;20004;-82
2022/09/06 12:02:39;;;;;;;1.40;0.50;;;37.80;57.80;;;;;;5985450;24;20395;-81
2022/09/06 12:05:13;;;;;;;2.15;0.60;;;38.00;56.90;;;;;;5986940;24;20004;-81
2022/09/06 12:08:17;;;;;;;2.83;0.40;;;37.80;54.60;;;;;;5988482;24;20016;-80
2022/09/06 12:10:56;;;;;;;3.08;0.60;;;37.20;55.30;;;;;;5956925;24;20016;-82
2022/09/06 12:13:56;;;;;;;2.25;0.50;;;37.50;54.60;;;;;;5965979;24;20022;-82
2022/09/06 12:16:23;;;;;;;2.00;0.70;;;38.00;53.60;;;;;;5931437;24;20009;-81
2022/09/06 12:18:49;;;;;;;3.22;0.40;;;38.30;52.50;;;;;;5966424;23;20008;-81
2022/09/06 12:21:34;;;;;;;1.67;0.50;;;38.40;52.30;;;;;;5966968;24;20008;-82
2022/09/06 12:24:05;;;;;;;1.48;0.45;;;38.30;52.10;;;;;;5966393;24;20318;-81
2022/09/06 12:27:07;;;;;;;1.67;0.50;;;38.50;52.60;;;;;;5986490;24;20012;-82
2022/09/06 12:29:36;;;;;;;1.50;0.60;;;38.70;50.70;;;;;;5963005;24;20022;-81
2022/09/06 12:32:04;;;;;;;1.75;0.57;;;38.90;50.50;;;;;;5962292;24;20008;-82
2022/09/06 12:34:45;;;;;;;2.40;0.45;;;39.10;49.90;;;;;;5962001;24;20511;-83
2022/09/06 12:53:15;;;;;;;3.97;1.50;;;41.20;46.50;;;;;;5987472;23;20018;-83
2022/09/06 13:01:38;;;;;;;1.53;0.53;;;41.30;46.00;;;;;;6103650;23;20034;-80
2022/09/06 13:05:14;;;;;;;2.63;0.88;;;41.40;45.80;;;;;;6122013;23;20014;-81
2022/09/06 13:09:23;;;;;;;1.05;0.50;;;41.70;45.20;;;;;;6010944;23;20018;-82
2022/09/06 13:20:45;;;;;;;1.67;0.60;;;42.50;43.90;;;;;;6062817;23;20367;-80
2022/09/06 13:23:49;;;;;;;1.45;0.52;;;42.70;42.60;;;;;;6060212;23;20014;-80
2022/09/06 13:27:45;;;;;;;1.83;0.70;;;42.90;43.00;;;;;;6143807;23;20376;-84
2022/09/06 13:31:01;;;;;;;2.20;0.50;;;43.10;42.60;;;;;;5972518;24;20012;-82
2022/09/06 13:37:35;;;;;;;2.00;0.50;;;43.30;42.60;;;;;;5992572;24;20012;-81
2022/09/06 13:44:45;;;;;;;1.70;0.55;;;43.80;41.40;;;;;;6041484;23;20489;-82
2022/09/06 13:48:25;;;;;;;1.92;0.60;;;44.30;40.30;;;;;;6054122;23;20018;-80
2022/09/06 13:51:12;;;;;;;1.10;0.40;;;44.20;39.70;;;;;;6094440;23;20014;-82
2022/09/06 13:53:40;;;;;;;1.23;0.50;;;44.40;39.80;;;;;;6069460;23;20021;-83
2022/09/06 14:01:10;;;;;;;2.28;0.68;;;44.70;39.60;;;;;;5998920;23;20478;-80
2022/09/06 14:04:24;;;;;;;1.13;0.50;;;44.80;38.40;;;;;;5951468;23;20018;-79
2022/09/06 14:11:37;;;;;;;1.40;0.50;;;45.20;38.00;;;;;;6090104;23;20041;-81
2022/09/06 14:19:18;;;;;;;1.70;1.00;;;44.90;36.80;;;;;;6062515;23;20735;-80
2022/09/06 14:26:26;;;;;;;1.42;0.50;;;40.60;39.80;;;;;;6006226;23;20095;-81
2022/09/06 14:28:56;;;;;;;0.75;0.40;;;37.90;42.80;;;;;;5991182;23;20018;-80
2022/09/06 14:32:25;;;;;;;0.88;0.43;;;36.50;44.10;;;;;;6030081;23;20023;-79
2022/09/06 14:35:37;;;;;;;0.95;0.40;;;35.30;45.30;;;;;;6005930;23;20020;-80
2022/09/06 14:38:33;;;;;;;0.90;0.40;;;34.30;46.20;;;;;;6086475;23;20029;-79
2022/09/06 14:41:27;;;;;;;2.58;0.50;;;33.60;47.10;;;;;;6076853;23;20005;-81
2022/09/06 14:44:18;;;;;;;1.52;0.40;;;33.00;47.70;;;;;;6076414;23;20015;-81
2022/09/06 14:47:12;;;;;;;1.48;0.50;;;32.60;48.60;;;;;;6102390;23;20014;-82
2022/09/06 14:50:19;;;;;;;1.40;0.57;;;32.20;49.30;;;;;;6104750;23;20006;-81
2022/09/06 14:52:53;;;;;;;1.38;0.45;;;31.90;50.20;;;;;;6079231;23;20278;-79
2022/09/06 14:55:46;;;;;;;0.80;0.40;;;31.70;50.60;;;;;;6095094;23;20006;-79
2022/09/06 15:01:42;;;;;;;0.90;0.50;;;31.20;51.60;;;;;;6099556;23;20026;-80
2022/09/06 15:04:49;;;;;;;1.58;0.40;;;31.00;52.10;;;;;;6102497;23;20014;-78
2022/09/06 15:07:47;;;;;;;1.35;0.60;;;30.80;52.70;;;;;;6097412;23;20014;-80
2022/09/06 15:11:02;;;;;;;2.20;0.50;;;30.70;53.20;;;;;;6088223;23;20010;-80
2022/09/06 15:14:30;;;;;;;;;;;;;;;;;;;;;
2022/09/06 15:17:37;;;;;;;0.85;0.40;;;30.50;53.90;;;;;;6113361;23;20018;-80
2022/09/06 15:21:30;;;;;;;2.47;0.43;;;30.30;54.10;;;;;;6086789;23;20025;-79
2022/09/06 15:24:35;;;;;;;1.45;0.50;;;30.10;54.10;;;;;;6055201;23;20458;-79
2022/09/06 15:27:37;;;;;;;1.13;0.40;;;30.10;54.30;;;;;;6050108;23;20474;-79
2022/09/06 15:30:41;;;;;;;2.70;0.60;;;30.00;54.50;;;;;;6042674;23;20007;-79
2022/09/06 15:34:35;;;;;;;0.90;0.50;;;29.90;54.90;;;;;;6114653;23;20003;-81
2022/09/06 15:37:13;;;;;;;1.10;0.50;;;29.70;55.10;;;;;;6020103;23;20334;-81
2022/09/06 15:39:50;;;;;;;1.15;0.50;;;29.60;55.80;;;;;;6081223;23;20012;-83
2022/09/06 15:42:25;;;;;;;1.65;0.43;;;29.50;56.10;;;;;;6059970;23;19998;-82
2022/09/06 15:52:13;;;;;;;2.05;1.13;;;29.10;56.90;;;;;;6136862;23;20022;-81
2022/09/06 15:58:15;;;;;;;3.30;1.35;;;29.00;57.40;;;;;;6132531;23;20007;-82
2022/09/06 16:04:54;;;;;;;5.70;3.97;;;28.80;58.20;;;;;;6087818;23;20019;-81
2022/09/06 16:32:10;;;;;;;1.00;0.50;;;28.50;59.90;;;;;;6063768;23;20461;-80
2022/09/06 16:36:11;;;;;;;1.50;0.85;;;28.40;59.90;;;;;;5962018;23;20031;-81
2022/09/06 16:39:03;;;;;;;;;;;;;;;;;;;;;
2022/09/06 16:43:00;;;;;;;;;;;;;;;;;;;;;
2022/09/06 16:46:42;;;;;;;;;;;;;;;;;;;;;
2022/09/06 16:49:26;;;;;;;1.33;0.50;;;28.00;60.60;;;;;;5946699;24;20374;-81
2022/09/06 16:55:32;;;;;;;1.63;0.77;;;27.90;61.00;;;;;;6006748;23;20025;-81
2022/09/06 16:58:18;;;;;;;1.50;0.50;;;27.80;61.20;;;;;;6005086;23;20022;-81
2022/09/06 17:01:08;;;;;;;0.80;0.40;;;27.70;61.50;;;;;;6046471;23;20014;-81
2022/09/06 17:03:50;;;;;;;1.85;0.47;;;27.60;61.70;;;;;;6023603;23;20011;-81
2022/09/06 17:06:36;;;;;;;1.42;0.30;;;27.60;61.90;;;;;;6058591;23;20015;-81
2022/09/06 17:09:14;;;;;;;3.03;1.33;;;27.50;62.10;;;;;;6008674;23;20015;-82
2022/09/06 17:17:03;;;;;;;2.25;1.23;;;27.40;62.90;;;;;;6040409;23;20011;-81
2022/09/06 17:18:22;;;;;;;2.53;0.90;;;27.30;63.10;;;;;;6012842;23;20604;-82
2022/09/06 17:21:00;;;;;;;1.52;0.60;;;27.20;63.50;;;;;;6039435;23;20011;-81
2022/09/06 17:23:45;;;;;;;1.33;0.52;;;27.10;63.90;;;;;;6047658;23;20003;-81
2022/09/06 17:26:29;;;;;;;1.35;0.65;;;27.10;64.10;;;;;;6072055;23;20451;-82
2022/09/06 17:29:21;;;;;;;2.67;0.60;;;27.00;64.40;;;;;;6018765;23;20011;-81
2022/09/06 17:32:01;;;;;;;1.33;0.60;;;26.90;64.60;;;;;;6100884;23;20253;-81
2022/09/06 17:34:33;;;;;;;0.82;0.50;;;26.80;65.00;;;;;;6070164;23;20336;-81
2022/09/06 17:37:15;;;;;;;2.13;0.90;;;26.80;65.20;;;;;;6044729;23;20454;-81
2022/09/06 17:39:52;;;;;;;2.20;0.75;;;26.70;65.60;;;;;;6044964;23;20007;-81
2022/09/06 17:42:32;;;;;;;1.23;0.57;;;26.60;65.80;;;;;;6067937;23;20011;-82
2022/09/06 17:45:23;;;;;;;3.97;1.20;;;26.60;66.10;;;;;;6049496;23;20018;-82
2022/09/06 17:48:06;;;;;;;1.42;0.77;;;26.50;66.20;;;;;;6050638;23;20011;-82
2022/09/06 17:50:40;;;;;;;3.38;1.10;;;26.50;66.50;;;;;;6026985;23;20015;-82
2022/09/06 17:53:07;;;;;;;2.33;0.98;;;26.40;66.90;;;;;;6073187;23;20013;-81
2022/09/06 17:55:43;;;;;;;1.70;0.80;;;26.40;67.20;;;;;;6026981;23;20018;-81
2022/09/06 17:58:51;;;;;;;1.50;0.63;;;26.20;67.50;;;;;;6068311;23;20003;-83
2022/09/06 18:01:51;;;;;;;1.48;0.60;;;26.20;68.00;;;;;;6026677;23;20007;-81
2022/09/06 18:04:23;;;;;;;1.25;0.52;;;26.00;68.10;;;;;;6016912;23;20007;-84
2022/09/06 18:07:01;;;;;;;2.72;0.60;;;26.00;68.30;;;;;;6098109;23;20014;-81